createdAt,value
2022-08-18T00:01:45.271Z,18.10
2022-08-18T00:04:24.302Z,18.10
2022-08-18T00:07:00.812Z,18.00
2022-08-18T00:09:32.187Z,18.00
2022-08-18T00:12:03.195Z,18.00
2022-08-18T00:14:30.576Z,17.90
2022-08-18T00:16:58.155Z,17.90
2022-08-18T00:19:46.659Z,17.90
2022-08-18T00:22:16.193Z,17.80
2022-08-18T00:24:48.365Z,17.80
2022-08-18T00:27:19.714Z,17.80
2022-08-18T00:29:49.609Z,17.80
2022-08-18T00:32:24.323Z,17.80
2022-08-18T00:34:53.012Z,17.80
2022-08-18T00:37:21.088Z,17.80
2022-08-18T00:39:50.394Z,17.80
2022-08-18T00:42:27.796Z,17.80
2022-08-18T00:45:01.950Z,17.80
2022-08-18T00:47:41.688Z,17.80
2022-08-18T00:50:37.384Z,17.70
2022-08-18T00:53:28.253Z,17.80
2022-08-18T00:55:59.774Z,17.80
2022-08-18T00:58:32.497Z,17.80
2022-08-18T01:01:06.028Z,17.80
2022-08-18T01:03:39.807Z,17.80
2022-08-18T01:06:23.651Z,17.90
2022-08-18T01:08:50.843Z,17.90
2022-08-18T01:11:17.878Z,17.90
2022-08-18T01:13:45.478Z,17.90
2022-08-18T01:16:35.484Z,17.90
2022-08-18T01:19:20.878Z,17.90
2022-08-18T01:21:55.616Z,18.00
2022-08-18T01:24:52.132Z,18.10
2022-08-18T01:27:19.723Z,18.10
2022-08-18T01:29:49.016Z,18.10
2022-08-18T01:32:20.404Z,18.20
2022-08-18T01:34:49.336Z,18.20
2022-08-18T01:37:18.764Z,18.10
2022-08-18T01:41:25.256Z,18.10
2022-08-18T01:42:34.021Z,18.20
2022-08-18T01:45:03.993Z,18.20
2022-08-18T01:47:57.314Z,18.20
2022-08-18T01:50:20.277Z,18.20
2022-08-18T01:52:47.561Z,18.20
2022-08-18T01:55:14.934Z,18.20
2022-08-18T01:57:45.406Z,18.30
2022-08-18T02:00:15.439Z,18.20
2022-08-18T02:02:43.137Z,18.30
2022-08-18T02:05:33.586Z,18.30
2022-08-18T02:08:00.874Z,18.30
2022-08-18T02:10:28.263Z,18.30
2022-08-18T02:12:55.300Z,18.30
2022-08-18T02:15:22.411Z,18.20
2022-08-18T02:17:50.125Z,18.10
2022-08-18T02:20:19.861Z,18.10
2022-08-18T02:22:48.135Z,18.10
2022-08-18T02:25:17.136Z,18.10
2022-08-18T02:27:45.966Z,18.20
2022-08-18T02:30:15.919Z,18.20
2022-08-18T02:32:43.513Z,18.20
2022-08-18T02:35:12.255Z,18.20
2022-08-18T02:37:42.141Z,18.20
2022-08-18T02:40:11.360Z,18.10
2022-08-18T02:42:43.908Z,18.10
2022-08-18T02:45:12.942Z,18.10
2022-08-18T02:47:40.195Z,18.00
2022-08-18T02:50:07.957Z,18.00
2022-08-18T02:52:38.450Z,18.00
2022-08-18T02:55:08.343Z,18.00
2022-08-18T02:57:35.471Z,18.00
2022-08-18T03:00:02.704Z,18.00
2022-08-18T03:02:30.006Z,17.90
2022-08-18T03:04:57.208Z,17.90
2022-08-18T03:07:25.572Z,17.90
2022-08-18T03:09:52.673Z,17.90
2022-08-18T03:12:19.801Z,17.90
2022-08-18T03:14:46.915Z,17.90
2022-08-18T03:17:15.155Z,18.00
2022-08-18T03:19:46.761Z,18.00
2022-08-18T03:22:27.380Z,18.00
2022-08-18T03:24:56.983Z,18.00
2022-08-18T03:27:25.059Z,18.00
2022-08-18T03:29:52.215Z,18.00
2022-08-18T03:32:19.230Z,18.00
2022-08-18T03:34:46.299Z,18.00
2022-08-18T03:37:16.305Z,17.90
2022-08-18T03:39:43.459Z,17.90
2022-08-18T03:42:10.690Z,17.90
2022-08-18T03:44:37.717Z,17.90
2022-08-18T03:47:09.505Z,17.80
2022-08-18T03:49:37.829Z,17.80
2022-08-18T03:52:09.359Z,17.80
2022-08-18T03:54:39.028Z,17.80
2022-08-18T03:57:08.149Z,17.80
2022-08-18T03:59:35.294Z,17.80
2022-08-18T04:02:05.064Z,17.80
2022-08-18T04:04:32.378Z,17.80
2022-08-18T04:07:08.103Z,17.80
2022-08-18T04:09:37.013Z,17.80
2022-08-18T04:12:10.755Z,17.80
2022-08-18T04:14:46.666Z,17.70
2022-08-18T04:17:13.841Z,17.70
2022-08-18T04:19:41.022Z,17.70
2022-08-18T04:22:08.123Z,17.70
2022-08-18T04:24:35.177Z,17.70
2022-08-18T04:27:05.086Z,17.70
2022-08-18T04:29:32.315Z,17.70
2022-08-18T04:32:02.959Z,17.70
2022-08-18T04:34:30.025Z,17.70
2022-08-18T04:36:57.278Z,17.70
2022-08-18T04:39:25.825Z,17.70
2022-08-18T04:41:53.033Z,17.70
2022-08-18T04:44:21.769Z,17.70
2022-08-18T04:46:54.257Z,17.70
2022-08-18T04:49:26.242Z,17.70
2022-08-18T04:52:30.983Z,17.80
2022-08-18T04:55:02.066Z,17.70
2022-08-18T04:57:33.586Z,17.80
2022-08-18T05:00:03.078Z,17.80
2022-08-18T05:02:33.175Z,17.80
2022-08-18T05:05:01.709Z,17.80
2022-08-18T05:07:30.549Z,17.80
2022-08-18T05:09:57.633Z,17.80
2022-08-18T05:12:26.090Z,17.80
2022-08-18T05:14:57.154Z,17.80
2022-08-18T05:17:30.341Z,17.80
2022-08-18T05:20:00.804Z,17.80
2022-08-18T05:22:30.899Z,17.80
2022-08-18T05:24:58.819Z,17.80
2022-08-18T05:27:25.910Z,17.80
2022-08-18T05:29:52.953Z,17.80
2022-08-18T05:32:37.326Z,17.80
2022-08-18T05:35:12.381Z,17.90
2022-08-18T05:38:05.520Z,18.00
2022-08-18T05:40:33.448Z,18.00
2022-08-18T05:43:00.987Z,18.10
2022-08-18T05:45:28.223Z,18.20
2022-08-18T05:48:02.646Z,18.20
2022-08-18T05:50:34.262Z,18.30
2022-08-18T05:53:14.605Z,18.30
2022-08-18T05:56:04.644Z,18.40
2022-08-18T05:58:39.991Z,18.40
2022-08-18T06:01:22.704Z,18.50
2022-08-18T06:04:02.905Z,18.50
2022-08-18T06:06:32.914Z,18.40
2022-08-18T06:13:13.080Z,18.40
2022-08-18T06:15:52.158Z,18.40
2022-08-18T06:18:38.500Z,18.50
2022-08-18T06:21:29.445Z,18.50
2022-08-18T06:24:50.967Z,18.50
2022-08-18T06:27:58.822Z,18.50
2022-08-18T06:35:13.729Z,18.50
2022-08-18T06:38:45.813Z,18.50
2022-08-18T06:41:41.858Z,18.60
2022-08-18T06:44:25.647Z,18.60
2022-08-18T06:47:34.272Z,18.60
2022-08-18T06:50:26.582Z,18.60
2022-08-18T06:53:02.342Z,18.70
2022-08-18T06:55:44.755Z,18.70
2022-08-18T06:58:20.658Z,18.70
2022-08-18T07:00:50.809Z,18.80
2022-08-18T07:03:44.644Z,18.80
2022-08-18T07:06:24.703Z,18.90
2022-08-18T07:08:54.368Z,19.00
2022-08-18T07:11:27.169Z,19.00
2022-08-18T07:14:26.233Z,19.10
2022-08-18T07:17:10.548Z,19.20
2022-08-18T07:19:38.550Z,19.20
2022-08-18T07:22:14.019Z,19.30
2022-08-18T07:24:48.937Z,19.40
2022-08-18T07:27:40.674Z,19.50
2022-08-18T07:30:36.371Z,19.50
2022-08-18T07:33:24.664Z,19.50
2022-08-18T07:36:00.581Z,19.70
2022-08-18T07:38:43.226Z,19.80
2022-08-18T07:41:26.831Z,20.00
2022-08-18T07:44:13.928Z,20.10
2022-08-18T07:46:55.703Z,20.10
2022-08-18T07:49:26.399Z,20.10
2022-08-18T07:52:44.515Z,20.10
2022-08-18T07:55:33.232Z,20.20
2022-08-18T07:58:20.326Z,20.30
2022-08-18T08:01:20.569Z,20.40
2022-08-18T08:04:04.280Z,20.50
2022-08-18T08:06:55.432Z,20.60
2022-08-18T08:09:54.686Z,20.70
2022-08-18T08:12:51.372Z,20.70
2022-08-18T08:15:32.066Z,20.80
2022-08-18T08:18:09.913Z,20.90
2022-08-18T08:20:45.488Z,20.90
2022-08-18T08:23:22.256Z,21.00
2022-08-18T08:25:58.093Z,21.00
2022-08-18T08:28:34.061Z,21.00
2022-08-18T08:31:33.374Z,21.00
2022-08-18T08:34:18.617Z,21.00
2022-08-18T08:36:47.857Z,21.10
2022-08-18T08:39:39.121Z,21.10
2022-08-18T08:42:31.954Z,21.10
2022-08-18T08:45:07.385Z,21.10
2022-08-18T08:48:09.633Z,21.10
2022-08-18T08:50:49.143Z,21.10
2022-08-18T08:53:26.451Z,21.10
2022-08-18T08:56:02.712Z,21.10
2022-08-18T08:58:57.397Z,21.10
2022-08-18T09:01:33.359Z,21.10
2022-08-18T09:04:17.289Z,21.00
2022-08-18T09:07:21.195Z,21.10
2022-08-18T09:09:50.939Z,21.30
2022-08-18T09:12:26.058Z,21.60
2022-08-18T09:15:23.131Z,21.80
2022-08-18T09:18:43.658Z,22.10
2022-08-18T09:21:29.422Z,22.40
2022-08-18T09:24:25.865Z,22.70
2022-08-18T09:27:23.358Z,22.70
2022-08-18T09:30:00.858Z,22.90
2022-08-18T09:32:29.234Z,23.10
2022-08-18T09:35:20.217Z,23.30
2022-08-18T09:38:14.710Z,23.50
2022-08-18T09:41:12.936Z,23.50
2022-08-18T09:44:17.922Z,23.50
2022-08-18T09:46:57.381Z,23.50
2022-08-18T09:49:26.642Z,23.40
2022-08-18T09:52:21.211Z,23.20
2022-08-18T09:54:59.269Z,23.10
2022-08-18T09:57:46.792Z,23.10
2022-08-18T10:00:28.221Z,23.20
2022-08-18T10:03:25.993Z,23.30
2022-08-18T10:09:17.767Z,23.50
2022-08-18T10:12:02.772Z,23.40
2022-08-18T10:14:49.833Z,23.30
2022-08-18T10:17:55.104Z,23.40
2022-08-18T10:20:55.891Z,23.50
2022-08-18T10:23:47.957Z,23.70
2022-08-18T10:26:31.861Z,24.10
2022-08-18T10:29:00.328Z,24.30
2022-08-18T10:31:29.681Z,24.60
2022-08-18T10:34:16.049Z,24.60
2022-08-18T10:37:00.416Z,25.50
2022-08-18T10:39:41.241Z,25.00
2022-08-18T10:42:31.028Z,25.10
2022-08-18T10:45:10.745Z,25.20
2022-08-18T10:47:37.998Z,25.10
2022-08-18T10:50:18.538Z,25.10
2022-08-18T10:53:24.218Z,25.30
2022-08-18T10:55:50.111Z,25.50
2022-08-18T10:58:44.398Z,25.80
2022-08-18T11:01:36.500Z,26.20
2022-08-18T11:04:34.537Z,26.40
2022-08-18T11:07:18.321Z,26.20
2022-08-18T11:09:57.234Z,26.00
2022-08-18T11:12:56.543Z,25.90
2022-08-18T11:15:45.649Z,25.70
2022-08-18T11:18:28.432Z,25.50
2022-08-18T11:21:22.792Z,25.50
2022-08-18T11:24:11.167Z,25.60
2022-08-18T11:26:52.582Z,25.80
2022-08-18T11:29:33.793Z,25.80
2022-08-18T11:32:15.832Z,25.90
2022-08-18T11:35:00.001Z,26.00
2022-08-18T11:37:48.979Z,26.10
2022-08-18T11:40:51.596Z,26.30
2022-08-18T11:43:41.597Z,26.60
2022-08-18T11:46:29.788Z,26.70
2022-08-18T11:49:26.753Z,26.90
2022-08-18T11:52:03.144Z,26.80
2022-08-18T11:57:46.222Z,26.50
2022-08-18T12:00:48.062Z,26.70
2022-08-18T12:03:49.086Z,26.70
2022-08-18T12:06:26.972Z,26.90
2022-08-18T12:09:24.452Z,26.90
2022-08-18T12:12:24.388Z,26.80
2022-08-18T12:15:13.722Z,26.60
2022-08-18T12:17:52.223Z,26.60
2022-08-18T12:20:21.101Z,26.70
2022-08-18T12:22:50.024Z,26.50
2022-08-18T12:25:24.908Z,26.40
2022-08-18T12:27:53.547Z,26.20
2022-08-18T12:30:20.779Z,26.10
2022-08-18T12:33:00.654Z,25.90
2022-08-18T12:35:35.150Z,25.90
2022-08-18T12:38:03.623Z,26.00
2022-08-18T12:40:40.243Z,26.20
2022-08-18T12:43:07.556Z,26.30
2022-08-18T12:45:37.385Z,26.30
2022-08-18T12:48:06.843Z,26.50
2022-08-18T12:50:43.176Z,26.70
2022-08-18T12:53:29.626Z,27.10
2022-08-18T12:56:27.188Z,27.60
2022-08-18T12:58:55.598Z,27.80
2022-08-18T13:01:25.147Z,27.50
2022-08-18T13:04:11.475Z,27.30
2022-08-18T13:07:00.801Z,27.10
2022-08-18T13:09:35.345Z,26.90
2022-08-18T13:12:16.677Z,27.00
2022-08-18T13:14:45.465Z,27.20
2022-08-18T13:17:29.754Z,27.40
2022-08-18T13:20:06.789Z,27.50
2022-08-18T13:22:35.345Z,27.60
2022-08-18T13:25:05.346Z,27.50
2022-08-18T13:27:35.222Z,27.30
2022-08-18T13:30:29.553Z,27.20
2022-08-18T13:33:00.306Z,27.10
2022-08-18T13:35:38.043Z,27.10
2022-08-18T13:38:22.185Z,27.10
2022-08-18T13:40:55.335Z,27.10
2022-08-18T13:43:30.324Z,27.00
2022-08-18T13:45:57.591Z,26.70
2022-08-18T13:48:25.733Z,26.50
2022-08-18T13:50:59.928Z,26.40
2022-08-18T13:53:30.064Z,26.60
2022-08-18T13:55:59.418Z,26.70
2022-08-18T13:58:28.253Z,26.60
2022-08-18T14:01:16.299Z,26.60
2022-08-18T14:03:49.945Z,26.80
2022-08-18T14:06:22.981Z,27.10
2022-08-18T14:08:53.271Z,27.20
2022-08-18T14:11:27.687Z,27.30
2022-08-18T14:14:01.895Z,27.50
2022-08-18T14:16:29.147Z,27.60
2022-08-18T14:19:17.644Z,27.60
2022-08-18T14:22:06.440Z,27.60
2022-08-18T14:24:58.671Z,27.20
2022-08-18T14:27:35.380Z,26.90
2022-08-18T14:30:06.857Z,26.70
2022-08-18T14:32:36.450Z,26.80
2022-08-18T14:35:34.054Z,26.80
2022-08-18T14:37:53.084Z,26.70
2022-08-18T14:40:23.330Z,26.60
2022-08-18T14:42:54.507Z,26.70
2022-08-18T14:45:31.237Z,26.80
2022-08-18T14:48:01.928Z,26.90
2022-08-18T14:50:33.620Z,26.90
2022-08-18T14:53:02.337Z,26.90
2022-08-18T14:55:30.654Z,26.90
2022-08-18T14:57:58.613Z,26.80
2022-08-18T15:00:27.945Z,26.80
2022-08-18T15:02:55.451Z,26.90
2022-08-18T15:05:24.543Z,26.90
2022-08-18T15:07:53.094Z,27.00
2022-08-18T15:10:23.636Z,27.10
2022-08-18T15:12:55.239Z,27.20
2022-08-18T15:15:22.945Z,27.20
2022-08-18T15:17:52.989Z,27.30
2022-08-18T15:20:28.690Z,27.30
2022-08-18T15:23:24.800Z,27.20
2022-08-18T15:25:56.364Z,27.10
2022-08-18T15:28:25.323Z,27.00
2022-08-18T15:31:16.529Z,26.90
2022-08-18T15:33:40.100Z,26.80
2022-08-18T15:36:10.368Z,26.70
2022-08-18T15:38:43.450Z,26.60
2022-08-18T15:41:20.172Z,26.50
2022-08-18T15:43:49.544Z,26.50
2022-08-18T15:46:17.591Z,26.40
2022-08-18T15:48:44.701Z,26.50
2022-08-18T15:51:12.746Z,26.50
2022-08-18T15:53:44.604Z,26.50
2022-08-18T15:56:31.715Z,26.60
2022-08-18T15:59:07.777Z,26.50
2022-08-18T16:01:39.596Z,26.50
2022-08-18T16:06:41.617Z,26.20
2022-08-18T16:09:08.752Z,26.20
2022-08-18T16:11:36.411Z,26.10
2022-08-18T16:14:03.458Z,26.00
2022-08-18T16:16:36.181Z,26.00
2022-08-18T16:19:06.817Z,26.00
2022-08-18T16:21:40.254Z,25.90
2022-08-18T16:24:08.256Z,25.90
2022-08-18T16:26:35.614Z,25.80
2022-08-18T16:29:02.670Z,25.80
2022-08-18T16:31:29.787Z,25.80
2022-08-18T16:33:57.993Z,25.80
2022-08-18T16:36:25.872Z,25.70
2022-08-18T16:38:54.495Z,25.60
2022-08-18T16:41:26.649Z,25.60
2022-08-18T16:43:54.477Z,25.50
2022-08-18T16:46:25.384Z,25.50
2022-08-18T16:48:53.865Z,25.40
2022-08-18T16:51:23.503Z,25.40
2022-08-18T16:53:52.311Z,25.30
2022-08-18T16:56:22.795Z,25.30
2022-08-18T16:59:08.275Z,25.30
2022-08-18T17:01:54.357Z,25.20
2022-08-18T17:04:24.610Z,25.20
2022-08-18T17:06:51.744Z,25.20
2022-08-18T17:09:20.211Z,25.10
2022-08-18T17:11:51.680Z,25.10
2022-08-18T17:14:21.644Z,25.10
2022-08-18T17:16:53.262Z,25.00
2022-08-18T17:19:24.898Z,25.00
2022-08-18T17:21:52.775Z,24.90
2022-08-18T17:24:31.314Z,24.80
2022-08-18T17:27:11.940Z,24.80
2022-08-18T17:30:26.888Z,24.80
2022-08-18T17:32:56.150Z,24.70
2022-08-18T17:35:36.416Z,24.60
2022-08-18T17:38:13.695Z,24.60
2022-08-18T17:40:48.518Z,24.60
2022-08-18T17:43:22.331Z,24.50
2022-08-18T17:46:00.358Z,24.50
2022-08-18T17:48:55.551Z,24.40
2022-08-18T17:51:44.445Z,24.40
2022-08-18T17:54:25.478Z,24.40
2022-08-18T17:57:01.669Z,24.40
2022-08-18T17:59:58.096Z,24.30
2022-08-18T18:02:30.618Z,24.20
2022-08-18T18:05:03.289Z,24.20
2022-08-18T18:07:39.849Z,24.10
2022-08-18T18:10:14.516Z,24.00
2022-08-18T18:12:41.761Z,24.00
2022-08-18T18:15:13.522Z,24.00
2022-08-18T18:17:42.742Z,23.90
2022-08-18T18:20:32.886Z,23.80
2022-08-18T18:23:21.551Z,23.80
2022-08-18T18:25:50.404Z,23.80
2022-08-18T18:28:31.111Z,23.70
2022-08-18T18:31:16.283Z,23.70
2022-08-18T18:33:43.847Z,23.60
2022-08-18T18:36:11.620Z,23.50
2022-08-18T18:38:46.190Z,23.50
2022-08-18T18:41:13.186Z,23.30
2022-08-18T18:43:44.690Z,23.20
2022-08-18T18:46:23.904Z,23.20
2022-08-18T18:49:08.012Z,23.20
2022-08-18T18:51:56.205Z,23.10
2022-08-18T18:54:56.786Z,23.10
2022-08-18T18:57:35.241Z,23.00
2022-08-18T19:00:13.460Z,23.00
2022-08-18T19:03:05.206Z,23.00
2022-08-18T19:05:44.900Z,22.80
2022-08-18T19:08:39.772Z,22.80
2022-08-18T19:11:29.222Z,22.70
2022-08-18T19:14:03.012Z,22.70
2022-08-18T19:16:45.245Z,22.70
2022-08-18T19:19:36.948Z,22.60
2022-08-18T19:22:34.271Z,22.60
2022-08-18T19:25:29.222Z,22.60
2022-08-18T19:28:09.202Z,22.50
2022-08-18T19:30:41.609Z,22.40
2022-08-18T19:33:11.610Z,22.40
2022-08-18T19:35:47.808Z,22.40
2022-08-18T19:38:25.693Z,22.30
2022-08-18T19:40:52.669Z,22.20
2022-08-18T19:43:35.994Z,22.10
2022-08-18T19:46:18.025Z,22.10
2022-08-18T19:49:20.431Z,22.00
2022-08-18T19:51:53.103Z,22.00
2022-08-18T19:55:07.579Z,21.90
2022-08-18T19:58:11.226Z,21.90
2022-08-18T20:00:46.970Z,21.80
2022-08-18T20:03:24.674Z,21.80
2022-08-18T20:06:34.304Z,21.70
2022-08-18T20:09:27.928Z,21.70
2022-08-18T20:12:20.877Z,21.60
2022-08-18T20:15:15.929Z,21.60
2022-08-18T20:17:58.206Z,21.50
2022-08-18T20:20:31.646Z,21.50
2022-08-18T20:22:59.557Z,21.40
2022-08-18T20:25:32.439Z,21.40
2022-08-18T20:27:59.425Z,21.30
2022-08-18T20:30:46.896Z,21.20
2022-08-18T20:33:23.156Z,21.20
2022-08-18T20:36:17.786Z,21.10
2022-08-18T20:38:54.015Z,21.10
2022-08-18T20:41:32.203Z,21.10
2022-08-18T20:44:21.439Z,21.00
2022-08-18T20:47:17.862Z,21.00
2022-08-18T20:50:03.951Z,21.00
2022-08-18T20:52:44.119Z,21.00
2022-08-18T20:55:53.080Z,21.00
2022-08-18T20:58:26.950Z,21.00
2022-08-18T21:00:57.206Z,20.90
2022-08-18T21:03:38.025Z,20.90
2022-08-18T21:06:05.860Z,20.80
2022-08-18T21:08:35.929Z,20.80
2022-08-18T21:11:08.329Z,20.80
2022-08-18T21:13:41.399Z,20.80
2022-08-18T21:16:09.930Z,20.80
2022-08-18T21:18:38.190Z,20.80
2022-08-18T21:21:12.471Z,20.70
2022-08-18T21:23:44.437Z,20.70
2022-08-18T21:26:16.290Z,20.70
2022-08-18T21:28:48.380Z,20.70
2022-08-18T21:31:44.983Z,20.70
2022-08-18T21:34:28.653Z,20.60
2022-08-18T21:36:58.398Z,20.60
2022-08-18T21:39:25.609Z,20.70
2022-08-18T21:41:55.212Z,20.60
2022-08-18T21:44:25.482Z,20.60
2022-08-18T21:47:06.840Z,20.60
2022-08-18T21:49:34.095Z,20.50
2022-08-18T21:52:01.641Z,20.50
2022-08-18T21:54:34.397Z,20.50
2022-08-18T21:57:45.991Z,20.50
2022-08-18T22:00:31.926Z,20.50
2022-08-18T22:03:19.730Z,20.50
2022-08-18T22:06:01.741Z,20.50
2022-08-18T22:08:32.702Z,20.50
2022-08-18T22:12:02.053Z,20.40
2022-08-18T22:14:54.545Z,20.40
2022-08-18T22:17:28.479Z,20.40
2022-08-18T22:19:55.736Z,20.40
2022-08-18T22:22:42.192Z,20.40
2022-08-18T22:25:12.132Z,20.30
2022-08-18T22:27:40.237Z,20.30
2022-08-18T22:30:08.226Z,20.30
2022-08-18T22:32:37.765Z,20.30
2022-08-18T22:35:08.001Z,20.20
2022-08-18T22:37:45.323Z,20.20
2022-08-18T22:40:16.427Z,20.20
2022-08-18T22:42:49.037Z,20.10
2022-08-18T22:45:16.297Z,20.10
2022-08-18T22:47:44.955Z,20.10
2022-08-18T22:50:13.451Z,20.10
2022-08-18T22:52:44.323Z,20.10
2022-08-18T22:55:14.040Z,20.10
2022-08-18T22:57:42.881Z,20.10
2022-08-18T23:00:16.391Z,20.10
2022-08-18T23:02:44.310Z,20.20
2022-08-18T23:05:11.833Z,20.20
2022-08-18T23:07:38.953Z,20.10
2022-08-18T23:10:14.246Z,20.10
2022-08-18T23:12:43.258Z,20.10
2022-08-18T23:15:11.742Z,20.00
2022-08-18T23:17:40.775Z,20.00
2022-08-18T23:20:12.508Z,20.00
2022-08-18T23:22:45.683Z,20.00
2022-08-18T23:25:13.598Z,20.00
2022-08-18T23:27:42.226Z,20.00
2022-08-18T23:30:09.659Z,19.90
2022-08-18T23:32:36.755Z,19.90
2022-08-18T23:35:04.300Z,19.90
2022-08-18T23:37:31.782Z,19.90
2022-08-18T23:39:59.379Z,19.90
2022-08-18T23:42:26.662Z,19.90
2022-08-18T23:44:53.676Z,19.90
2022-08-18T23:47:21.052Z,19.80
2022-08-18T23:49:48.410Z,19.80
2022-08-18T23:52:15.757Z,19.80
2022-08-18T23:54:42.796Z,19.80
2022-08-18T23:57:09.850Z,19.80
2022-08-18T23:59:36.862Z,19.80
